Flight Track Log - Related Links

Times and Time Zones

All times are in EDT time to prevent confusion due to time zone crossing. See the N8378B flight status page for this flight to view local times or setup timezone preferences in your user account.

Time Position Orientation Groundspeed Altitude Reporting Facility
EDT Latitude Longitude Course Direction KTS MPH feet Rate Location/Type
Fri 07:51:36 AM 42.5833 -70.9333 180° South 78 90 700  Level KA90
Fri 07:53:00 AM 42.5500 -70.9333 180° South 106 122 1,600 583 Climbing KA90
Fri 07:54:00 AM 42.5333 -70.9500 216° Southwest 87 100 2,100 450 Climbing KA90
Fri 07:55:00 AM 42.5000 -70.9500 180° South 91 105 2,500 381 Climbing KA90
Fri 07:56:06 AM 42.4833 -70.9667 216° Southwest 87 100 2,900 400 Climbing KA90
Fri 07:57:00 AM 42.4500 -70.9667 180° South 85 98 3,300 421 Climbing KA90
Fri 07:58:00 AM 42.4333 -70.9833 216° Southwest 83 96 3,700 500 Climbing KA90
Fri 07:59:00 AM 42.4167 -71.0000 216° Southwest 81 93 4,300 500 Climbing KA90
Fri 08:00:00 AM 42.4000 -71.0333 236° Southwest 76 87 4,700 421 Climbing KA90
Fri 08:00:54 AM 42.3833 -71.0500 216° Southwest 78 90 5,100 400 Climbing KA90
Fri 08:02:00 AM 42.3667 -71.0667 216° Southwest 79 91 5,500 238 Climbing KA90
Fri 08:03:00 AM 42.3500 -71.0833 216° Southwest 113 130 5,600  Climbing KA90
Fri 08:04:00 AM 42.3167 -71.1167 216° Southwest 119 137 5,500  Descending KA90
Fri 08:05:00 AM 42.2833 -71.1000 160° South 131 151 5,600 50 Climbing KA90
Fri 08:06:00 AM 42.2500 -71.0833 160° South 131 151 5,600 -50 Level KA90
Fri 08:07:00 AM 42.2333 -71.0500 124° Southeast 136 157 5,500 -100 Descending KA90
Fri 08:08:00 AM 42.2234 -70.9934 103° East  Level FlightAware Approximate
Fri 08:15:00 AM 42.1527 -70.5981 103° East  Level FlightAware Approximate
Fri 08:16:00 AM 42.1424 -70.5417 104° East  Level FlightAware Approximate
Fri 08:17:00 AM 42.1322 -70.4853 104° East  Level FlightAware Approximate
Fri 08:18:00 AM 42.1219 -70.4289 104° East  Level FlightAware Approximate
Fri 08:19:00 AM 42.1095 -70.3735 110° East  Level FlightAware Approximate
Fri 08:20:00 AM 42.0947 -70.3189 110° East  Level FlightAware Approximate
Fri 08:21:00 AM 42.0799 -70.2645 110° East  Level FlightAware Approximate
Fri 08:22:00 AM 42.0650 -70.2100 110° East  Level FlightAware Approximate
Fri 08:23:00 AM 42.0502 -70.1556 110° East  Level FlightAware Approximate
Fri 08:24:00 AM 42.0353 -70.1012 110° East  Level FlightAware Approximate
Fri 08:25:00 AM 42.0204 -70.0469 110° East  Level FlightAware Approximate
Fri 08:26:00 AM 41.9843 -70.0345 182° South  Level FlightAware Approximate
Fri 08:27:00 AM 41.9413 -70.0360 182° South  Level FlightAware Approximate
Fri 08:28:00 AM 41.8983 -70.0376 182° South  Level FlightAware Approximate
Fri 08:29:00 AM 41.8552 -70.0391 182° South  Level FlightAware Approximate
Fri 08:30:00 AM 41.8122 -70.0407 182° South  Level FlightAware Approximate
Fri 08:31:00 AM 41.7691 -70.0422 182° South  Level FlightAware Approximate
Fri 08:32:00 AM 41.7261 -70.0437 182° South  Level FlightAware Approximate
Fri 08:33:00 AM 41.6831 -70.0453 182° South  Level FlightAware Approximate
Fri 08:34:00 AM 41.6400 -70.0468 182° South  Level FlightAware Approximate
Fri 08:35:00 AM 41.5970 -70.0483 182° South  Level FlightAware Approximate
Fri 08:36:00 AM 41.5539 -70.0499 182° South  Level FlightAware Approximate
Fri 08:37:00 AM 41.5109 -70.0500 180° South  Level FlightAware Approximate
Fri 08:38:00 AM 41.4679 -70.0500 180° South  Level FlightAware Approximate
Fri 08:39:00 AM 41.4248 -70.0500 180° South  Level FlightAware Approximate
Fri 08:40:00 AM 41.3818 -70.0500 180° South  Level FlightAware Approximate
Fri 08:41:00 AM 41.3387 -70.0500 180° South  Level FlightAware Approximate
Fri 08:42:00 AM 41.2957 -70.0500 180° South  Level FlightAware Approximate
Fri 08:43:00 AM 41.2526 -70.0500 180° South  Level FlightAware Approximate
Fri 08:44:00 AM 41.2500 -70.0500 180° South  Level FlightAware Approximate
Fri 08:45:00 AM 41.2531 -70.0603 180° South  Level Estimated
Fri 08:46:00 AM 41.2531 -70.0603 180° South  Level Estimated
Fri 08:47:00 AM 41.2531 -70.0603 180° South  Level Estimated
Fri 08:48:00 AM 41.2531 -70.0603 180° South  Level Estimated
Fri 08:49:00 AM 41.2531 -70.0603 180° South  Level Estimated
Fri 08:50:00 AM 41.2531 -70.0603 180° South  Level Estimated
Fri 08:51:00 AM 41.2531 -70.0603 180° South  Level Estimated
Fri 08:52:00 AM 41.2531 -70.0603 180° South  Level Estimated
Fri 08:53:00 AM 41.2531 -70.0603 180° South  Level Estimated
Fri 08:54:00 AM 41.2531 -70.0603 180° South  Level Estimated
Fri 08:55:00 AM 41.2531 -70.0603 180° South  Level Estimated
Fri 08:56:00 AM 41.2531 -70.0603 180° South  Level Estimated
Fri 08:57:00 AM 41.2531 -70.0603 180° South  Level Estimated
Fri 08:58:00 AM 41.2531 -70.0603 180° South  Level Estimated
Fri 08:59:00 AM 41.2531 -70.0603 180° South  Level Estimated
Fri 09:00:00 AM 41.2531 -70.0603 180° South  Level Estimated
Fri 09:01:00 AM 41.2531 -70.0603 180° South  Level Estimated
Fri 09:02:00 AM 41.2531 -70.0603 180° South  Level Estimated
Fri 09:03:00 AM 41.2531 -70.0603 180° South  Level Estimated
Fri 09:04:00 AM 41.2531 -70.0603 180° South  Level Estimated
Fri 09:05:00 AM 41.2531 -70.0603 180° South  Level Estimated
Fri 09:06:00 AM 41.2531 -70.0603 180° South  Level Estimated
Fri 09:07:00 AM 41.2531 -70.0603 180° South  Level Estimated
Fri 09:08:00 AM 41.2531 -70.0603 180° South  Level Estimated
Fri 09:09:00 AM 41.2531 -70.0603 180° South  Level Estimated

Login

Don't have an account? Register now (free) for customized features, flight alerts, and more!